createdAt,value
2022-09-07T00:01:07.357Z,100391.62
2022-09-07T00:03:36.361Z,100389.72
2022-09-07T00:06:07.919Z,100386.66
2022-09-07T00:08:36.435Z,100386.75
2022-09-07T00:11:08.264Z,100380.28
2022-09-07T00:13:38.938Z,100381.06
2022-09-07T00:16:08.503Z,100388.03
2022-09-07T00:18:36.794Z,100390.50
2022-09-07T00:21:07.711Z,100383.75
2022-09-07T00:23:37.696Z,100377.28
2022-09-07T00:26:09.851Z,100366.25
2022-09-07T00:28:38.453Z,100380.72
2022-09-07T00:31:11.347Z,100376.19
2022-09-07T00:33:39.582Z,100378.03
2022-09-07T00:36:07.991Z,100368.78
2022-09-07T00:38:36.192Z,100370.19
2022-09-07T00:41:04.626Z,100363.13
2022-09-07T00:43:38.025Z,100365.50
2022-09-07T00:46:08.084Z,100362.81
2022-09-07T00:48:43.428Z,100357.28
2022-09-07T00:51:15.967Z,100353.72
2022-09-07T00:53:46.139Z,100349.03
2022-09-07T00:56:14.807Z,100351.72
2022-09-07T00:58:45.139Z,100353.41
2022-09-07T01:01:13.985Z,100351.72
2022-09-07T01:03:44.992Z,100362.50
2022-09-07T01:06:17.059Z,100367.88
2022-09-07T01:08:47.290Z,100374.94
2022-09-07T01:11:15.537Z,100362.81
2022-09-07T01:13:46.794Z,100371.19
2022-09-07T01:16:24.849Z,100369.50
2022-09-07T01:19:02.519Z,100368.66
2022-09-07T01:21:45.293Z,100374.16
2022-09-07T01:24:36.407Z,100364.97
2022-09-07T01:27:42.068Z,100363.97
2022-09-07T01:30:12.597Z,100366.81
2022-09-07T01:33:06.146Z,100367.25
2022-09-07T01:35:43.235Z,100369.50
2022-09-07T01:38:21.510Z,100369.09
2022-09-07T01:40:58.415Z,100367.41
2022-09-07T01:43:36.497Z,100371.69
2022-09-07T01:46:12.053Z,100364.25
2022-09-07T01:48:41.671Z,100369.37
2022-09-07T01:51:12.574Z,100367.84
2022-09-07T01:53:44.577Z,100368.00
2022-09-07T01:56:15.785Z,100363.47
2022-09-07T01:58:49.050Z,100357.09
2022-09-07T02:01:24.704Z,100351.72
2022-09-07T02:03:58.065Z,100352.41
2022-09-07T02:06:35.759Z,100348.87
2022-09-07T02:09:08.396Z,100355.25
2022-09-07T02:11:39.387Z,100348.34
2022-09-07T02:14:12.560Z,100341.97
2022-09-07T02:16:48.547Z,100342.81
2022-09-07T02:19:20.902Z,100347.03
2022-09-07T02:21:55.013Z,100340.66
2022-09-07T02:24:27.669Z,100345.87
2022-09-07T02:26:57.652Z,100346.72
2022-09-07T02:29:30.890Z,100348.72
2022-09-07T02:31:59.221Z,100352.56
2022-09-07T02:34:27.744Z,100348.63
2022-09-07T02:36:58.083Z,100361.38
2022-09-07T02:39:26.109Z,100355.16
2022-09-07T02:41:54.400Z,100355.00
2022-09-07T02:44:25.922Z,100349.47
2022-09-07T02:47:05.972Z,100344.25
2022-09-07T02:49:47.146Z,100350.31
2022-09-07T02:52:23.174Z,100343.41
2022-09-07T02:55:03.086Z,100338.16
2022-09-07T02:57:47.333Z,100336.78
2022-09-07T03:00:19.200Z,100333.22
2022-09-07T03:02:56.844Z,100335.06
2022-09-07T03:05:30.090Z,100332.37
2022-09-07T03:08:04.283Z,100337.06
2022-09-07T03:10:33.367Z,100335.37
2022-09-07T03:13:01.317Z,100338.75
2022-09-07T03:15:29.594Z,100329.69
2022-09-07T03:17:59.148Z,100324.31
2022-09-07T03:20:27.228Z,100331.41
2022-09-07T03:22:55.131Z,100333.09
2022-09-07T03:25:23.686Z,100332.78
2022-09-07T03:27:51.679Z,100324.56
2022-09-07T03:30:19.931Z,100324.41
2022-09-07T03:32:48.343Z,100323.41
2022-09-07T03:35:18.128Z,100320.44
2022-09-07T03:37:46.167Z,100318.44
2022-09-07T03:40:16.255Z,100325.50
2022-09-07T03:42:44.515Z,100324.19
2022-09-07T03:45:12.694Z,100324.03
2022-09-07T03:47:41.303Z,100322.06
2022-09-07T03:50:10.617Z,100320.91
2022-09-07T03:52:40.182Z,100313.34
2022-09-07T03:55:09.188Z,100317.63
2022-09-07T03:57:37.266Z,100308.53
2022-09-07T04:00:06.383Z,100312.91
2022-09-07T04:02:40.559Z,100314.59
2022-09-07T04:05:09.604Z,100308.22
2022-09-07T04:07:37.778Z,100310.06
2022-09-07T04:10:07.894Z,100306.38
2022-09-07T04:12:36.098Z,100309.59
2022-09-07T04:15:04.138Z,100303.94
2022-09-07T04:17:32.028Z,100298.37
2022-09-07T04:20:00.240Z,100295.53
2022-09-07T04:22:28.181Z,100305.28
2022-09-07T04:24:56.097Z,100293.84
2022-09-07T04:27:25.551Z,100288.31
2022-09-07T04:29:53.496Z,100284.59
2022-09-07T04:32:21.546Z,100277.37
2022-09-07T04:34:51.872Z,100287.81
2022-09-07T04:37:19.806Z,100282.31
2022-09-07T04:39:47.705Z,100286.53
2022-09-07T04:42:15.945Z,100288.22
2022-09-07T04:44:45.205Z,100273.75
2022-09-07T04:47:13.145Z,100272.44
2022-09-07T04:49:41.533Z,100276.34
2022-09-07T04:52:09.599Z,100282.25
2022-09-07T04:54:37.479Z,100279.31
2022-09-07T04:57:06.082Z,100282.69
2022-09-07T04:59:33.961Z,100278.31
2022-09-07T05:02:03.192Z,100280.69
2022-09-07T05:04:31.639Z,100274.44
2022-09-07T05:06:59.590Z,100272.59
2022-09-07T05:09:27.477Z,100274.28
2022-09-07T05:11:55.762Z,100266.75
2022-09-07T05:14:23.714Z,100256.00
2022-09-07T05:16:51.802Z,100255.16
2022-09-07T05:19:21.433Z,100246.75
2022-09-07T05:21:49.418Z,100247.59
2022-09-07T05:24:17.296Z,100248.09
2022-09-07T05:26:45.468Z,100243.41
2022-09-07T05:32:01.655Z,100253.87
2022-09-07T05:34:31.318Z,100258.78
2022-09-07T05:37:00.010Z,100252.91
2022-09-07T05:39:28.551Z,100252.59
2022-09-07T05:41:57.198Z,100254.28
2022-09-07T05:47:13.654Z,100261.44
2022-09-07T05:49:42.983Z,100264.19
2022-09-07T05:52:10.856Z,100266.91
2022-09-07T05:54:38.994Z,100260.87
2022-09-07T05:57:07.242Z,100259.94
2022-09-07T05:59:35.399Z,100254.56
2022-09-07T06:02:03.775Z,100251.56
2022-09-07T06:04:32.472Z,100253.28
2022-09-07T06:12:37.899Z,100253.16
2022-09-07T06:15:06.849Z,100248.28
2022-09-07T06:17:34.813Z,100249.28
2022-09-07T06:20:03.583Z,100240.91
2022-09-07T06:22:33.083Z,100242.44
2022-09-07T06:25:01.060Z,100247.66
2022-09-07T06:27:29.424Z,100249.34
2022-09-07T06:29:57.935Z,100251.34
2022-09-07T06:35:15.491Z,100243.53
2022-09-07T06:37:45.148Z,100230.03
2022-09-07T06:40:13.391Z,100231.69
2022-09-07T06:42:41.737Z,100226.09
2022-09-07T06:45:11.603Z,100228.22
2022-09-07T06:47:40.552Z,100225.78
2022-09-07T06:50:10.106Z,100226.41
2022-09-07T06:55:28.684Z,100230.00
2022-09-07T06:57:56.583Z,100232.41
2022-09-07T07:00:24.573Z,100230.78
2022-09-07T07:02:52.798Z,100243.72
2022-09-07T07:05:20.849Z,100259.88
2022-09-07T07:07:48.721Z,100259.31
2022-09-07T07:10:19.755Z,100248.81
2022-09-07T07:12:52.999Z,100250.31
2022-09-07T07:15:21.350Z,100255.59
2022-09-07T07:17:56.079Z,100265.22
2022-09-07T07:20:27.179Z,100264.56
2022-09-07T07:22:58.156Z,100244.97
2022-09-07T07:25:26.022Z,100248.31
2022-09-07T07:27:55.558Z,100262.03
2022-09-07T07:30:23.551Z,100257.13
2022-09-07T07:32:51.655Z,100252.44
2022-09-07T07:35:20.161Z,100246.84
2022-09-07T07:37:48.103Z,100262.81
2022-09-07T07:40:17.773Z,100273.84
2022-09-07T07:42:48.771Z,100265.28
2022-09-07T07:48:06.586Z,100262.81
2022-09-07T07:50:34.769Z,100282.22
2022-09-07T07:55:52.026Z,100265.69
2022-09-07T07:58:20.181Z,100280.13
2022-09-07T08:00:57.084Z,100279.94
2022-09-07T08:03:26.427Z,100273.31
2022-09-07T08:05:55.041Z,100276.47
2022-09-07T08:08:24.430Z,100268.19
2022-09-07T08:10:53.306Z,100279.12
2022-09-07T08:13:21.742Z,100275.16
2022-09-07T08:15:51.012Z,100265.34
2022-09-07T08:18:21.574Z,100267.91
2022-09-07T08:20:49.447Z,100270.63
2022-09-07T08:23:17.811Z,100254.53
2022-09-07T08:25:54.747Z,100258.56
2022-09-07T08:28:23.774Z,100247.16
2022-09-07T08:30:55.118Z,100249.03
2022-09-07T08:33:23.045Z,100263.25
2022-09-07T08:35:59.262Z,100248.31
2022-09-07T08:38:27.776Z,100242.03
2022-09-07T08:40:55.897Z,100252.50
2022-09-07T08:43:47.110Z,100246.78
2022-09-07T08:46:29.226Z,100245.69
2022-09-07T08:49:00.825Z,100236.91
2022-09-07T08:51:38.312Z,100245.91
2022-09-07T08:54:07.135Z,100244.31
2022-09-07T08:57:20.500Z,100249.34
2022-09-07T08:59:39.000Z,100250.25
2022-09-07T09:02:34.005Z,100246.06
2022-09-07T09:05:18.498Z,100250.81
2022-09-07T09:07:58.331Z,100244.41
2022-09-07T09:10:35.660Z,100247.81
2022-09-07T09:13:10.848Z,100253.34
2022-09-07T09:15:52.165Z,100253.41
2022-09-07T09:18:35.143Z,100242.12
2022-09-07T09:21:03.526Z,100244.22
2022-09-07T09:23:35.495Z,100249.03
2022-09-07T09:26:08.585Z,100254.72
2022-09-07T09:28:37.248Z,100245.72
2022-09-07T09:31:05.877Z,100256.66
2022-09-07T09:33:35.215Z,100251.63
2022-09-07T09:36:03.696Z,100256.22
2022-09-07T09:38:35.316Z,100251.81
2022-09-07T09:41:08.327Z,100261.03
2022-09-07T09:43:44.503Z,100267.13
2022-09-07T09:46:20.397Z,100259.59
2022-09-07T09:48:56.892Z,100263.34
2022-09-07T09:54:25.795Z,100262.88
2022-09-07T09:56:54.147Z,100263.72
2022-09-07T10:05:28.231Z,100267.81
2022-09-07T10:07:59.424Z,100267.13
2022-09-07T10:10:29.474Z,100258.81
2022-09-07T10:12:57.549Z,100256.97
2022-09-07T10:15:40.206Z,100254.22
2022-09-07T10:18:23.302Z,100261.94
2022-09-07T10:20:52.461Z,100252.91
2022-09-07T10:23:23.588Z,100251.97
2022-09-07T10:25:51.928Z,100242.75
2022-09-07T10:28:22.555Z,100236.69
2022-09-07T10:31:10.014Z,100236.91
2022-09-07T10:36:46.019Z,100237.81
2022-09-07T10:39:18.194Z,100229.72
2022-09-07T10:41:55.855Z,100229.84
2022-09-07T10:44:36.278Z,100230.22
2022-09-07T10:47:25.686Z,100222.81
2022-09-07T10:52:55.524Z,100221.28
2022-09-07T10:55:29.851Z,100220.34
2022-09-07T10:58:08.912Z,100218.41
2022-09-07T11:00:44.543Z,100218.53
2022-09-07T11:03:35.406Z,100213.72
2022-09-07T11:06:15.157Z,100212.53
2022-09-07T11:09:17.807Z,100208.09
2022-09-07T11:12:03.062Z,100213.06
2022-09-07T11:14:37.716Z,100215.91
2022-09-07T11:17:14.088Z,100220.94
2022-09-07T11:19:49.482Z,100210.25
2022-09-07T11:22:28.864Z,100204.50
2022-09-07T11:27:57.872Z,100199.78
2022-09-07T11:30:31.200Z,100191.38
2022-09-07T11:33:04.463Z,100187.66
2022-09-07T11:35:37.753Z,100180.19
2022-09-07T11:38:15.202Z,100185.78
2022-09-07T11:40:56.697Z,100187.97
2022-09-07T11:43:30.806Z,100188.81
2022-09-07T11:46:07.396Z,100183.06
2022-09-07T11:48:42.700Z,100176.91
2022-09-07T11:51:16.634Z,100173.75
2022-09-07T11:53:51.038Z,100174.75
2022-09-07T11:56:26.947Z,100177.75
2022-09-07T11:59:06.198Z,100175.84
2022-09-07T12:01:46.429Z,100174.66
2022-09-07T12:04:31.399Z,100165.41
2022-09-07T12:07:19.880Z,100168.81
2022-09-07T12:10:07.945Z,100169.09
2022-09-07T12:12:57.579Z,100165.09
2022-09-07T12:15:37.338Z,100165.47
2022-09-07T12:18:23.056Z,100157.34
2022-09-07T12:20:51.476Z,100160.38
2022-09-07T12:23:25.582Z,100151.06
2022-09-07T12:25:54.971Z,100152.91
2022-09-07T12:28:56.040Z,100139.56
2022-09-07T12:31:57.206Z,100145.31
2022-09-07T12:34:53.618Z,100128.53
2022-09-07T12:37:39.742Z,100136.44
2022-09-07T12:40:47.209Z,100128.75
2022-09-07T12:44:17.813Z,100115.81
2022-09-07T12:46:56.937Z,100117.38
2022-09-07T12:49:58.891Z,100115.19
2022-09-07T12:52:46.207Z,100109.06
2022-09-07T12:55:28.950Z,100104.53
2022-09-07T12:58:11.060Z,100103.31
2022-09-07T13:00:57.733Z,100096.19
2022-09-07T13:03:51.728Z,100084.06
2022-09-07T13:09:31.926Z,100093.28
2022-09-07T13:12:01.184Z,100092.22
2022-09-07T13:14:30.245Z,100088.50
2022-09-07T13:17:42.670Z,100086.84
2022-09-07T13:20:30.255Z,100084.69
2022-09-07T13:23:21.737Z,100085.59
2022-09-07T13:25:55.902Z,100077.81
2022-09-07T13:28:51.890Z,100076.41
2022-09-07T13:31:49.445Z,100075.22
2022-09-07T13:34:53.960Z,100080.50
2022-09-07T13:37:25.346Z,100065.66
2022-09-07T13:39:57.185Z,100073.03
2022-09-07T13:42:28.904Z,100082.25
2022-09-07T13:44:58.516Z,100077.63
2022-09-07T13:47:42.832Z,100068.75
2022-09-07T13:50:23.962Z,100063.56
2022-09-07T13:53:16.170Z,100060.22
2022-09-07T13:55:52.805Z,100057.19
2022-09-07T13:58:30.329Z,100065.84
2022-09-07T14:01:02.311Z,100059.12
2022-09-07T14:03:37.764Z,100052.41
2022-09-07T14:06:33.175Z,100053.47
2022-09-07T14:09:07.039Z,100049.94
2022-09-07T14:11:42.559Z,100047.59
2022-09-07T14:14:14.181Z,100051.00
2022-09-07T14:16:44.829Z,100040.63
2022-09-07T14:19:18.078Z,100051.28
2022-09-07T14:21:54.931Z,100051.38
2022-09-07T14:24:32.068Z,100046.72
2022-09-07T14:27:00.686Z,100047.50
2022-09-07T14:29:31.497Z,100044.50
2022-09-07T14:32:01.563Z,100049.41
2022-09-07T14:34:33.790Z,100047.72
2022-09-07T14:37:05.928Z,100038.16
2022-09-07T14:39:40.101Z,100038.03
2022-09-07T14:42:11.495Z,100033.87
2022-09-07T14:44:43.184Z,100036.56
2022-09-07T14:47:29.115Z,100029.59
2022-09-07T14:50:05.991Z,100030.78
2022-09-07T14:52:43.387Z,100038.47
2022-09-07T14:55:33.412Z,100029.91
2022-09-07T14:58:21.042Z,100021.31
2022-09-07T15:04:02.452Z,100025.50
2022-09-07T15:09:30.718Z,100027.28
2022-09-07T15:12:18.273Z,100015.69
2022-09-07T15:14:47.551Z,100017.00
2022-09-07T15:20:32.613Z,100017.59
2022-09-07T15:23:01.235Z,100017.06
2022-09-07T15:25:30.481Z,100012.47
2022-09-07T15:27:59.865Z,99999.03
2022-09-07T15:30:28.162Z,99999.31
2022-09-07T15:32:57.341Z,100003.31
2022-09-07T15:35:25.895Z,99999.00
2022-09-07T15:38:02.424Z,99999.88
2022-09-07T15:40:37.592Z,100001.75
2022-09-07T15:43:30.062Z,100003.81
2022-09-07T15:45:55.511Z,100004.19
2022-09-07T15:48:25.308Z,100003.28
2022-09-07T15:51:02.443Z,99999.25
2022-09-07T15:56:20.314Z,99992.31
2022-09-07T15:58:53.779Z,99987.06
2022-09-07T16:04:17.106Z,99982.66
2022-09-07T16:06:48.246Z,99970.78
2022-09-07T16:09:17.505Z,99964.41
2022-09-07T16:11:46.153Z,99962.47
2022-09-07T16:14:15.466Z,99971.31
2022-09-07T16:19:35.106Z,99967.69
2022-09-07T16:22:03.550Z,99961.69
2022-09-07T16:24:31.533Z,99955.06
2022-09-07T16:26:59.390Z,99958.91
2022-09-07T16:29:28.934Z,99962.13
2022-09-07T16:34:45.020Z,99961.09
2022-09-07T16:37:13.079Z,99967.78
2022-09-07T16:39:41.828Z,99972.63
2022-09-07T16:42:10.068Z,99970.13
2022-09-07T16:44:39.518Z,99967.91
2022-09-07T16:47:08.099Z,99975.06
2022-09-07T16:49:36.244Z,99975.34
2022-09-07T16:52:05.267Z,99981.84
2022-09-07T16:54:33.105Z,99984.56
2022-09-07T16:57:01.211Z,99976.81
2022-09-07T16:59:29.085Z,99975.94
2022-09-07T17:01:58.295Z,99982.16
2022-09-07T17:04:26.583Z,99974.84
2022-09-07T17:06:54.566Z,99965.16
2022-09-07T17:09:26.619Z,99956.37
2022-09-07T17:11:54.772Z,99947.84
2022-09-07T17:14:22.718Z,99945.38
2022-09-07T17:16:50.944Z,99946.16
2022-09-07T17:19:29.477Z,99945.22
2022-09-07T17:21:59.618Z,99951.06
2022-09-07T17:24:27.803Z,99941.91
2022-09-07T17:26:55.807Z,99930.81
2022-09-07T17:29:23.698Z,99933.19
2022-09-07T17:34:41.106Z,99948.31
2022-09-07T17:37:10.118Z,99940.63
2022-09-07T17:39:38.860Z,99947.56
2022-09-07T17:42:07.532Z,99956.16
2022-09-07T17:44:38.294Z,99971.69
2022-09-07T17:47:06.855Z,99988.84
2022-09-07T17:49:35.293Z,100001.16
2022-09-07T17:52:06.510Z,100005.50
2022-09-07T17:54:34.487Z,100004.16
2022-09-07T17:57:03.239Z,100032.63
2022-09-07T18:02:24.427Z,100033.44
2022-09-07T18:04:52.574Z,100022.56
2022-09-07T18:07:21.765Z,100012.00
2022-09-07T18:09:49.659Z,100006.34
2022-09-07T18:12:17.854Z,100028.94
2022-09-07T18:14:45.667Z,100063.13
2022-09-07T18:17:13.631Z,100078.00
2022-09-07T18:19:41.722Z,100111.34
2022-09-07T18:22:09.589Z,100127.50
2022-09-07T18:24:38.816Z,100120.12
2022-09-07T18:27:07.783Z,100108.22
2022-09-07T18:29:35.654Z,100085.25
2022-09-07T18:32:08.500Z,100079.16
2022-09-07T18:34:37.568Z,100072.09
2022-09-07T18:37:06.055Z,100071.72
2022-09-07T18:39:35.654Z,100075.19
2022-09-07T18:42:07.623Z,100083.63
2022-09-07T18:47:28.880Z,100086.84
2022-09-07T18:49:58.131Z,100079.28
2022-09-07T18:55:16.684Z,100083.22
2022-09-07T18:57:46.084Z,100072.78
2022-09-07T19:00:14.701Z,100061.59
2022-09-07T19:02:42.919Z,100048.94
2022-09-07T19:08:03.128Z,100055.25
2022-09-07T19:10:35.022Z,100056.50
2022-09-07T19:13:04.733Z,100049.19
2022-09-07T19:15:37.425Z,100045.00
2022-09-07T19:18:07.752Z,100036.19
2022-09-07T19:20:36.563Z,100047.91
2022-09-07T19:23:04.626Z,100041.63
2022-09-07T19:25:32.572Z,100048.75
2022-09-07T19:28:00.687Z,100055.34
2022-09-07T19:30:30.399Z,100067.22
2022-09-07T19:33:02.114Z,100068.81
2022-09-07T19:35:36.065Z,100067.59
2022-09-07T19:38:03.977Z,100063.84
2022-09-07T19:40:32.064Z,100066.34
2022-09-07T19:42:59.966Z,100064.75
2022-09-07T19:45:28.370Z,100055.16
2022-09-07T19:47:57.821Z,100061.41
2022-09-07T19:50:25.961Z,100056.38
2022-09-07T19:52:53.812Z,100049.72
2022-09-07T19:55:21.924Z,100048.03
2022-09-07T19:57:51.275Z,100040.94
2022-09-07T20:00:19.426Z,100041.19
2022-09-07T20:02:48.994Z,100042.03
2022-09-07T20:05:19.116Z,100044.09
2022-09-07T20:07:47.334Z,100038.78
2022-09-07T20:10:15.696Z,100031.06
2022-09-07T20:12:43.598Z,100029.94
2022-09-07T20:15:12.042Z,100017.63
2022-09-07T20:17:39.926Z,100024.28
2022-09-07T20:20:08.994Z,100012.12
2022-09-07T20:22:38.597Z,100005.78
2022-09-07T20:25:11.316Z,100000.91
2022-09-07T20:27:41.389Z,99998.78
2022-09-07T20:30:10.303Z,100008.72
2022-09-07T20:32:38.223Z,99999.66
2022-09-07T20:35:07.050Z,99987.25
2022-09-07T20:37:35.117Z,99986.37
2022-09-07T20:40:06.310Z,99990.66
2022-09-07T20:42:34.501Z,99990.41
2022-09-07T20:45:03.060Z,99986.56
2022-09-07T20:47:30.879Z,99982.38
2022-09-07T20:49:58.947Z,99986.13
2022-09-07T20:52:27.094Z,99978.25
2022-09-07T20:54:54.908Z,99968.53
2022-09-07T20:57:24.687Z,99971.69
2022-09-07T20:59:52.871Z,99964.22
2022-09-07T21:02:20.798Z,99969.63
2022-09-07T21:04:48.946Z,99971.50
2022-09-07T21:07:16.788Z,99967.94
2022-09-07T21:09:44.596Z,99970.03
2022-09-07T21:12:12.750Z,99974.44
2022-09-07T21:14:41.970Z,99981.81
2022-09-07T21:17:09.845Z,99988.25
2022-09-07T21:19:38.053Z,99993.66
2022-09-07T21:22:06.046Z,99997.94
2022-09-07T21:24:34.002Z,99995.81
2022-09-07T21:27:02.055Z,99999.38
2022-09-07T21:29:30.061Z,99995.81
2022-09-07T21:31:59.228Z,99986.03
2022-09-07T21:34:27.354Z,99991.25
2022-09-07T21:36:55.168Z,99993.75
2022-09-07T21:39:23.042Z,99996.28
2022-09-07T21:41:51.133Z,99992.34
2022-09-07T21:44:19.149Z,99992.34
2022-09-07T21:46:47.146Z,99993.19
2022-09-07T21:49:16.546Z,100001.69
2022-09-07T21:51:44.486Z,99995.63
2022-09-07T21:54:12.357Z,99994.16
2022-09-07T21:56:45.868Z,99999.06
2022-09-07T21:59:14.636Z,99997.59
2022-09-07T22:01:42.729Z,99982.09
2022-09-07T22:04:12.039Z,99985.47
2022-09-07T22:06:41.455Z,99983.13
2022-09-07T22:09:09.292Z,99995.06
2022-09-07T22:11:37.553Z,99990.69
2022-09-07T22:14:07.144Z,99992.56
2022-09-07T22:16:36.090Z,99990.59
2022-09-07T22:19:04.693Z,99986.75
2022-09-07T22:21:32.988Z,99982.09
2022-09-07T22:24:04.200Z,99975.34
2022-09-07T22:26:37.482Z,99980.47
2022-09-07T22:29:06.530Z,99980.88
2022-09-07T22:31:36.580Z,99974.31
2022-09-07T22:34:07.922Z,99973.72
2022-09-07T22:36:37.395Z,99984.00
2022-09-07T22:39:09.993Z,99977.72
2022-09-07T22:41:39.456Z,99982.44
2022-09-07T22:44:09.203Z,99977.38
2022-09-07T22:46:39.337Z,99977.91
2022-09-07T22:49:08.915Z,99985.56
2022-09-07T22:51:37.047Z,99988.06
2022-09-07T22:54:06.997Z,99988.91
2022-09-07T22:56:35.751Z,99988.25
2022-09-07T22:59:07.382Z,99982.72
2022-09-07T23:01:36.463Z,99978.84
2022-09-07T23:04:05.949Z,99981.72
2022-09-07T23:06:35.886Z,99980.56
2022-09-07T23:09:07.823Z,99969.91
2022-09-07T23:11:35.727Z,99968.41
2022-09-07T23:14:06.495Z,99970.81
2022-09-07T23:16:34.996Z,99966.31
2022-09-07T23:19:03.223Z,99970.53
2022-09-07T23:21:31.233Z,99972.94
2022-09-07T23:24:00.752Z,99972.44
2022-09-07T23:26:32.148Z,99964.88
2022-09-07T23:29:02.183Z,99950.72
2022-09-07T23:31:32.604Z,99931.31
2022-09-07T23:34:01.901Z,99946.19
2022-09-07T23:36:30.027Z,99950.09
2022-09-07T23:38:59.707Z,99947.22
2022-09-07T23:41:28.639Z,99941.50
2022-09-07T23:43:58.638Z,99943.50
2022-09-07T23:46:26.892Z,99939.97
2022-09-07T23:48:54.884Z,99942.38
2022-09-07T23:51:24.526Z,99947.78
2022-09-07T23:53:53.942Z,99947.78
2022-09-07T23:56:24.278Z,99941.34
2022-09-07T23:58:52.679Z,99947.78
